Other Surface Observations
Issued by NWS Great Falls, MT

Home | Current Version | Previous Version | Text Only | Print | Product List | Glossary On
Versions: 1 2 3 4 5 6 7 8 9 10 11 12 13 14 15 16 17 18 19 20 21 22 23 24 25 26 27 28 29 30 31 32 33 34 35 36 37 38 39 40 41 42 43 44 45 46 47 48 49 50
000
SXUS55 KTFX 172304
OSOTFX

AREA AWOS OBSERVATIONS
NATIONAL WEATHER SERVICE GREAT FALLS MT
0404 PM MST Sat Feb 17 2018

METAR K9S5 172255Z AUTO 19025KT 40SM 03/M03 A2958 RMK A01 T00271027
METAR KRPX 172155Z AUTO 04008KT 4SM M07/M10 A2968 RMK A01 T10661100
METAR KTHM 172155Z AUTO 18008KT 0 1/2SM M02/M03 A2958 RMK A01 T10161027



USA.gov is the U.S. government's official web portal to all federal, state and local government web resources and services.